createdAt,value
2018-12-30T00:00:30.494Z,100524.91
2018-12-30T00:03:32.944Z,100532.86
2018-12-30T00:06:35.369Z,100529.10
2018-12-30T00:09:37.623Z,100520.58
2018-12-30T00:12:39.492Z,100509.97
2018-12-30T00:15:41.472Z,100508.19
2018-12-30T00:18:43.427Z,100509.14
2018-12-30T00:21:46.083Z,100506.13
2018-12-30T00:24:48.057Z,100496.11
2018-12-30T00:27:50.027Z,100496.41
2018-12-30T00:30:52.503Z,100506.16
2018-12-30T00:33:54.493Z,100500.97
2018-12-30T00:36:56.397Z,100511.27
2018-12-30T00:39:58.303Z,100514.53
2018-12-30T00:43:00.200Z,100509.43
2018-12-30T00:46:02.122Z,100505.05
2018-12-30T00:49:04.051Z,100503.55
2018-12-30T00:52:06.022Z,100495.05
2018-12-30T00:55:07.988Z,100503.12
2018-12-30T00:58:10.041Z,100492.78
2018-12-30T01:01:11.952Z,100486.27
2018-12-30T01:04:13.984Z,100491.25
2018-12-30T01:07:15.974Z,100500.59
2018-12-30T01:10:17.870Z,100490.77
2018-12-30T01:13:23.126Z,100485.31
2018-12-30T01:16:25.158Z,100480.96
2018-12-30T01:19:27.207Z,100486.25
2018-12-30T01:22:29.098Z,100483.20
2018-12-30T01:25:31.146Z,100478.95
2018-12-30T01:28:33.143Z,100478.12
2018-12-30T01:31:35.191Z,100475.33
2018-12-30T01:34:37.133Z,100477.89
2018-12-30T01:37:39.149Z,100472.58
2018-12-30T01:40:41.110Z,100463.52
2018-12-30T01:43:43.101Z,100469.53
2018-12-30T01:46:48.102Z,100477.27
2018-12-30T01:49:50.046Z,100471.33
2018-12-30T01:52:51.938Z,100467.61
2018-12-30T01:55:54.204Z,100460.67
2018-12-30T01:58:56.309Z,100461.94
2018-12-30T02:01:58.320Z,100462.22
2018-12-30T02:05:00.533Z,100459.47
2018-12-30T02:08:02.419Z,100456.74
2018-12-30T02:11:04.373Z,100460.04
2018-12-30T02:14:06.350Z,100453.00
2018-12-30T02:17:08.311Z,100450.70
2018-12-30T02:20:10.244Z,100454.51
2018-12-30T02:23:12.172Z,100456.09
2018-12-30T02:26:14.182Z,100442.62
2018-12-30T02:29:16.100Z,100443.67
2018-12-30T02:32:18.662Z,100432.42
2018-12-30T02:35:20.624Z,100432.96
2018-12-30T02:38:22.569Z,100431.83
2018-12-30T02:41:24.415Z,100423.64
2018-12-30T02:44:26.413Z,100420.80
2018-12-30T02:47:28.542Z,100420.48
2018-12-30T02:50:30.495Z,100417.48
2018-12-30T02:53:32.718Z,100413.67
2018-12-30T02:56:34.652Z,100408.30
2018-12-30T02:59:36.826Z,100402.42
2018-12-30T03:02:38.675Z,100398.16
2018-12-30T03:05:40.617Z,100401.39
2018-12-30T03:08:42.470Z,100401.98
2018-12-30T03:11:44.453Z,100401.94
2018-12-30T03:14:46.332Z,100394.23
2018-12-30T03:17:48.338Z,100399.69
2018-12-30T03:20:50.266Z,100388.19
2018-12-30T03:23:52.786Z,100394.06
2018-12-30T03:26:54.655Z,100385.57
2018-12-30T03:29:56.674Z,100383.83
2018-12-30T03:32:58.642Z,100382.52
2018-12-30T03:36:00.603Z,100375.92
2018-12-30T03:39:04.775Z,100380.76
2018-12-30T03:42:06.661Z,100373.63
2018-12-30T03:45:08.552Z,100375.14
2018-12-30T03:48:10.411Z,100374.43
2018-12-30T03:51:12.304Z,100366.31
2018-12-30T03:54:14.243Z,100370.77
2018-12-30T03:57:16.271Z,100372.36
2018-12-30T04:00:18.313Z,100374.27
2018-12-30T04:03:20.277Z,100374.95
2018-12-30T04:06:22.115Z,100373.25
2018-12-30T04:09:24.066Z,100373.14
2018-12-30T04:12:25.950Z,100372.86
2018-12-30T04:15:27.838Z,100370.13
2018-12-30T04:18:29.686Z,100375.30
2018-12-30T04:21:31.561Z,100369.62
2018-12-30T04:24:33.442Z,100367.86
2018-12-30T04:27:35.367Z,100364.36
2018-12-30T04:30:38.609Z,100371.06
2018-12-30T04:33:40.511Z,100370.33
2018-12-30T04:36:43.696Z,100364.05
2018-12-30T04:39:45.725Z,100362.13
2018-12-30T04:42:47.610Z,100359.42
2018-12-30T04:45:49.572Z,100358.38
2018-12-30T04:48:51.492Z,100354.82
2018-12-30T04:51:53.456Z,100354.08
2018-12-30T04:54:56.079Z,100357.34
2018-12-30T04:57:58.013Z,100354.91
2018-12-30T05:01:00.203Z,100355.78
2018-12-30T05:04:05.679Z,100357.57
2018-12-30T05:07:07.590Z,100356.48
2018-12-30T05:10:09.449Z,100354.64
2018-12-30T05:13:11.298Z,100356.88
2018-12-30T05:16:13.181Z,100362.48
2018-12-30T05:19:15.048Z,100346.17
2018-12-30T05:22:17.047Z,100351.67
2018-12-30T05:25:20.120Z,100345.14
2018-12-30T05:28:22.054Z,100347.69
2018-12-30T05:31:23.958Z,100348.84
2018-12-30T05:34:26.069Z,100345.84
2018-12-30T05:37:27.938Z,100352.22
2018-12-30T05:40:29.886Z,100353.61
2018-12-30T05:43:31.906Z,100348.74
2018-12-30T05:46:33.835Z,100346.84
2018-12-30T05:49:35.793Z,100343.59
2018-12-30T05:52:41.831Z,100351.34
2018-12-30T05:55:41.644Z,100352.22
2018-12-30T05:58:44.629Z,100354.14
2018-12-30T06:01:46.634Z,100355.28
2018-12-30T06:04:48.582Z,100354.25
2018-12-30T06:07:50.519Z,100357.80
2018-12-30T06:10:52.454Z,100353.75
2018-12-30T06:13:54.368Z,100362.20
2018-12-30T06:16:56.255Z,100361.22
2018-12-30T06:19:58.159Z,100356.41
2018-12-30T06:23:00.025Z,100361.09
2018-12-30T06:26:01.930Z,100361.97
2018-12-30T06:29:03.810Z,100369.44
2018-12-30T06:32:05.885Z,100368.89
2018-12-30T06:35:07.883Z,100368.89
2018-12-30T06:38:09.788Z,100368.98
2018-12-30T06:41:11.779Z,100376.59
2018-12-30T06:44:13.666Z,100376.19
2018-12-30T06:47:15.587Z,100372.05
2018-12-30T06:50:17.497Z,100372.28
2018-12-30T06:53:19.515Z,100376.69
2018-12-30T06:56:21.449Z,100376.19
2018-12-30T06:59:23.410Z,100373.24
2018-12-30T07:02:25.378Z,100372.37
2018-12-30T07:05:27.305Z,100371.50
2018-12-30T07:08:29.283Z,100379.70
2018-12-30T07:11:31.247Z,100380.69
2018-12-30T07:14:33.195Z,100380.19
2018-12-30T07:17:35.059Z,100379.46
2018-12-30T07:20:37.048Z,100377.06
2018-12-30T07:23:38.973Z,100377.43
2018-12-30T07:26:40.903Z,100375.33
2018-12-30T07:29:42.799Z,100375.38
2018-12-30T07:32:44.827Z,100373.97
2018-12-30T07:35:46.817Z,100375.33
2018-12-30T07:38:48.706Z,100370.42
2018-12-30T07:41:50.608Z,100368.55
2018-12-30T07:44:52.539Z,100375.70
2018-12-30T07:47:54.526Z,100374.07
2018-12-30T07:50:56.502Z,100376.07
2018-12-30T07:53:58.345Z,100369.92
2018-12-30T07:57:00.304Z,100366.05
2018-12-30T08:00:02.276Z,100363.41
2018-12-30T08:03:04.298Z,100365.36
2018-12-30T08:06:07.051Z,100371.47
2018-12-30T08:09:08.967Z,100367.37
2018-12-30T08:12:10.821Z,100364.95
2018-12-30T08:15:12.708Z,100365.27
2018-12-30T08:18:14.597Z,100368.03
2018-12-30T08:21:16.538Z,100367.93
2018-12-30T08:24:18.474Z,100367.23
2018-12-30T08:27:20.421Z,100369.85
2018-12-30T08:30:22.467Z,100361.34
2018-12-30T08:33:24.378Z,100364.81
2018-12-30T08:36:26.348Z,100363.75
2018-12-30T08:39:28.289Z,100369.81
2018-12-30T08:42:30.221Z,100363.28
2018-12-30T08:45:32.139Z,100363.20
2018-12-30T08:48:34.103Z,100364.64
2018-12-30T08:51:35.963Z,100357.08
2018-12-30T08:54:37.945Z,100357.01
2018-12-30T08:57:39.819Z,100369.19
2018-12-30T09:00:41.738Z,100362.63
2018-12-30T09:03:43.824Z,100363.72
2018-12-30T09:06:45.759Z,100360.20
2018-12-30T09:09:47.701Z,100362.39
2018-12-30T09:12:49.587Z,100370.67
2018-12-30T09:15:51.504Z,100365.06
2018-12-30T09:18:53.424Z,100371.32
2018-12-30T09:21:55.425Z,100372.52
2018-12-30T09:24:57.340Z,100371.50
2018-12-30T09:27:59.302Z,100367.97
2018-12-30T09:31:01.191Z,100364.14
2018-12-30T09:34:03.173Z,100375.67
2018-12-30T09:37:05.088Z,100368.31
2018-12-30T09:40:06.986Z,100367.86
2018-12-30T09:43:08.863Z,100363.23
2018-12-30T09:46:10.813Z,100365.00
2018-12-30T09:49:12.688Z,100360.14
2018-12-30T09:52:14.685Z,100361.51
2018-12-30T09:55:16.570Z,100366.28
2018-12-30T09:58:18.522Z,100358.45
2018-12-30T10:01:20.356Z,100354.92
2018-12-30T10:04:22.522Z,100355.73
2018-12-30T10:07:24.397Z,100357.62
2018-12-30T10:10:26.452Z,100359.48
2018-12-30T10:13:28.424Z,100358.06
2018-12-30T10:16:30.327Z,100358.31
2018-12-30T10:19:32.359Z,100356.85
2018-12-30T10:22:34.243Z,100354.91
2018-12-30T10:25:36.227Z,100355.27
2018-12-30T10:28:38.055Z,100355.33
2018-12-30T10:31:40.026Z,100352.64
2018-12-30T10:34:41.938Z,100354.31
2018-12-30T10:37:43.898Z,100352.34
2018-12-30T10:40:45.785Z,100356.97
2018-12-30T10:43:47.684Z,100355.58
2018-12-30T10:46:49.534Z,100359.44
2018-12-30T10:49:51.487Z,100354.48
2018-12-30T10:52:53.442Z,100358.17
2018-12-30T10:55:55.427Z,100354.39
2018-12-30T10:58:57.339Z,100350.28
2018-12-30T11:01:59.258Z,100350.03
2018-12-30T11:05:01.278Z,100349.29
2018-12-30T11:08:04.460Z,100337.55
2018-12-30T11:11:06.414Z,100337.67
2018-12-30T11:14:08.411Z,100337.15
2018-12-30T11:17:10.310Z,100339.34
2018-12-30T11:20:12.236Z,100335.98
2018-12-30T11:23:14.179Z,100329.66
2018-12-30T11:26:16.202Z,100329.42
2018-12-30T11:29:18.154Z,100334.34
2018-12-30T11:32:20.986Z,100332.74
2018-12-30T11:35:22.910Z,100327.59
2018-12-30T11:38:24.840Z,100329.83
2018-12-30T11:41:28.076Z,100324.84
2018-12-30T11:44:29.994Z,100337.44
2018-12-30T11:47:31.988Z,100330.27
2018-12-30T11:50:33.863Z,100344.50
2018-12-30T11:53:35.790Z,100368.02
2018-12-30T11:56:37.792Z,100366.35
2018-12-30T11:59:39.827Z,100376.22
2018-12-30T12:02:41.797Z,100374.32
2018-12-30T12:05:44.007Z,100372.91
2018-12-30T12:08:46.051Z,100387.97
2018-12-30T12:11:47.955Z,100383.61
2018-12-30T12:14:49.937Z,100377.28
2018-12-30T12:17:51.855Z,100396.79
2018-12-30T12:20:53.869Z,100401.74
2018-12-30T12:23:55.830Z,100405.80
2018-12-30T12:26:57.727Z,100413.09
2018-12-30T12:29:59.801Z,100414.41
2018-12-30T12:33:01.763Z,100416.27
2018-12-30T12:36:03.823Z,100427.44
2018-12-30T12:39:05.686Z,100433.19
2018-12-30T12:42:08.051Z,100430.45
2018-12-30T12:45:09.989Z,100447.13
2018-12-30T12:48:12.063Z,100450.66
2018-12-30T12:51:14.123Z,100445.76
2018-12-30T12:54:16.124Z,100457.16
2018-12-30T12:57:18.106Z,100449.22
2018-12-30T13:00:20.089Z,100465.72
2018-12-30T13:03:22.027Z,100473.31
2018-12-30T13:06:23.985Z,100465.23
2018-12-30T13:09:25.939Z,100484.35
2018-12-30T13:12:27.819Z,100460.31
2018-12-30T13:15:29.801Z,100483.26
2018-12-30T13:18:31.757Z,100497.45
2018-12-30T13:21:33.663Z,100485.83
2018-12-30T13:24:39.838Z,100507.34
2018-12-30T13:27:39.611Z,100519.52
2018-12-30T13:30:41.595Z,100521.67
2018-12-30T13:33:43.466Z,100528.83
2018-12-30T13:36:45.551Z,100519.48
2018-12-30T13:39:47.471Z,100535.66
2018-12-30T13:42:49.541Z,100532.23
2018-12-30T13:45:51.460Z,100551.17
2018-12-30T13:48:53.407Z,100541.75
2018-12-30T13:51:55.428Z,100564.98
2018-12-30T13:54:57.412Z,100559.59
2018-12-30T13:57:59.326Z,100554.12
2018-12-30T14:01:01.442Z,100563.36
2018-12-30T14:04:03.428Z,100568.87
2018-12-30T14:07:06.088Z,100578.08
2018-12-30T14:10:08.743Z,100570.47
2018-12-30T14:13:10.704Z,100575.76
2018-12-30T14:16:12.616Z,100582.61
2018-12-30T14:19:14.572Z,100573.80
2018-12-30T14:22:16.516Z,100586.88
2018-12-30T14:25:18.463Z,100581.12
2018-12-30T14:28:20.410Z,100564.13
2018-12-30T14:31:22.456Z,100591.28
2018-12-30T14:34:24.472Z,100581.36
2018-12-30T14:37:26.467Z,100595.61
2018-12-30T14:40:30.012Z,100595.77
2018-12-30T14:43:32.876Z,100606.49
2018-12-30T14:46:35.035Z,100624.94
2018-12-30T14:49:37.268Z,100636.64
2018-12-30T14:52:39.139Z,100644.33
2018-12-30T14:55:41.198Z,100642.91
2018-12-30T14:58:43.102Z,100654.06
2018-12-30T15:01:45.067Z,100655.73
2018-12-30T15:04:47.026Z,100664.93
2018-12-30T15:07:49.075Z,100670.48
2018-12-30T15:10:51.062Z,100679.36
2018-12-30T15:13:53.097Z,100666.12
2018-12-30T15:16:55.072Z,100669.73
2018-12-30T15:19:57.045Z,100667.83
2018-12-30T15:22:58.992Z,100672.64
2018-12-30T15:26:01.281Z,100681.37
2018-12-30T15:29:03.232Z,100687.19
2018-12-30T15:32:05.235Z,100678.98
2018-12-30T15:35:07.157Z,100670.96
2018-12-30T15:38:09.248Z,100679.36
2018-12-30T15:41:11.108Z,100681.37
2018-12-30T15:44:13.194Z,100677.19
2018-12-30T15:47:15.199Z,100684.37
2018-12-30T15:50:17.237Z,100686.62
2018-12-30T15:53:19.228Z,100674.82
2018-12-30T15:56:21.253Z,100700.86
2018-12-30T15:59:24.187Z,100700.64
2018-12-30T16:02:26.314Z,100705.63
2018-12-30T16:05:28.424Z,100714.77
2018-12-30T16:08:30.503Z,100717.98
2018-12-30T16:11:32.428Z,100711.56
2018-12-30T16:14:34.350Z,100715.78
2018-12-30T16:17:36.468Z,100718.03
2018-12-30T16:20:38.440Z,100724.13
2018-12-30T16:23:40.562Z,100727.23
2018-12-30T16:26:42.494Z,100732.44
2018-12-30T16:29:44.604Z,100733.87
2018-12-30T16:32:46.552Z,100745.15
2018-12-30T16:35:48.537Z,100737.75
2018-12-30T16:38:50.496Z,100744.39
2018-12-30T16:41:52.755Z,100748.20
2018-12-30T16:44:54.998Z,100757.76
2018-12-30T16:47:56.922Z,100757.03
2018-12-30T16:50:58.913Z,100762.20
2018-12-30T16:54:00.844Z,100770.20
2018-12-30T16:57:03.332Z,100767.80
2018-12-30T17:00:08.421Z,100763.70
2018-12-30T17:03:11.569Z,100767.66
2018-12-30T17:06:14.495Z,100770.05
2018-12-30T17:09:16.716Z,100767.60
2018-12-30T17:12:18.675Z,100777.64
2018-12-30T17:15:20.799Z,100768.71
2018-12-30T17:18:24.110Z,100789.25
2018-12-30T17:21:25.997Z,100783.64
2018-12-30T17:24:29.785Z,100797.64
2018-12-30T17:27:31.686Z,100781.86
2018-12-30T17:30:33.701Z,100793.61
2018-12-30T17:33:35.706Z,100796.69
2018-12-30T17:36:37.711Z,100811.42
2018-12-30T17:39:39.689Z,100814.56
2018-12-30T17:42:41.699Z,100804.75
2018-12-30T17:45:43.627Z,100811.05
2018-12-30T17:48:48.417Z,100821.39
2018-12-30T17:51:50.265Z,100823.17
2018-12-30T17:54:52.196Z,100823.71
2018-12-30T17:57:54.102Z,100825.14
2018-12-30T18:00:56.020Z,100817.39
2018-12-30T18:03:57.975Z,100821.39
2018-12-30T18:06:59.950Z,100826.85
2018-12-30T18:10:02.108Z,100820.92
2018-12-30T18:13:04.071Z,100825.72
2018-12-30T18:16:05.996Z,100826.61
2018-12-30T18:19:12.660Z,100824.48
2018-12-30T18:22:15.758Z,100826.61
2018-12-30T18:25:17.794Z,100835.19
2018-12-30T18:28:19.740Z,100846.15
2018-12-30T18:31:23.206Z,100850.72
2018-12-30T18:34:28.426Z,100845.39
2018-12-30T18:37:30.388Z,100849.55
2018-12-30T18:40:32.342Z,100842.78
2018-12-30T18:43:34.306Z,100852.83
2018-12-30T18:46:36.662Z,100841.77
2018-12-30T18:49:40.636Z,100845.39
2018-12-30T18:52:42.533Z,100852.77
2018-12-30T18:55:44.480Z,100860.07
2018-12-30T18:58:46.362Z,100863.34
2018-12-30T19:01:50.118Z,100864.23
2018-12-30T19:04:55.547Z,100861.09
2018-12-30T19:07:59.744Z,100866.55
2018-12-30T19:11:01.888Z,100871.35
2018-12-30T19:14:03.876Z,100868.05
2018-12-30T19:17:07.122Z,100858.16
2018-12-30T19:20:09.439Z,100865.00
2018-12-30T19:23:11.627Z,100864.30
2018-12-30T19:26:14.629Z,100865.66
2018-12-30T19:29:17.083Z,100862.04
2018-12-30T19:32:19.031Z,100867.66
2018-12-30T19:35:21.293Z,100871.60
2018-12-30T19:38:23.315Z,100870.59
2018-12-30T19:41:25.275Z,100869.34
2018-12-30T19:44:30.823Z,100867.63
2018-12-30T19:47:34.259Z,100868.39
2018-12-30T19:50:38.381Z,100871.75
2018-12-30T19:53:40.836Z,100867.30
2018-12-30T19:56:42.834Z,100876.70
2018-12-30T19:59:44.744Z,100873.18
2018-12-30T20:02:46.756Z,100877.42
2018-12-30T20:05:50.987Z,100872.29
2018-12-30T20:08:52.936Z,100881.13
2018-12-30T20:11:58.142Z,100879.32
2018-12-30T20:15:00.160Z,100871.13
2018-12-30T20:18:02.265Z,100885.09
2018-12-30T20:21:04.583Z,100887.36
2018-12-30T20:24:07.665Z,100881.30
2018-12-30T20:27:10.773Z,100893.80
2018-12-30T20:30:12.751Z,100894.64
2018-12-30T20:33:14.710Z,100895.86
2018-12-30T20:36:17.825Z,100906.95
2018-12-30T20:39:20.270Z,100902.63
2018-12-30T20:42:22.663Z,100903.28
2018-12-30T20:45:25.795Z,100906.03
2018-12-30T20:48:28.190Z,100900.25
2018-12-30T20:51:30.489Z,100903.72
2018-12-30T20:54:32.385Z,100907.81
2018-12-30T20:57:34.571Z,100907.48
2018-12-30T21:00:36.755Z,100919.38
2018-12-30T21:03:40.165Z,100908.22
2018-12-30T21:06:44.392Z,100915.10
2018-12-30T21:09:46.491Z,100918.36
2018-12-30T21:12:50.480Z,100917.45
2018-12-30T21:15:54.910Z,100921.20
2018-12-30T21:18:56.831Z,100929.16
2018-12-30T21:21:59.601Z,100940.25
2018-12-30T21:25:01.529Z,100943.87
2018-12-30T21:28:03.546Z,100942.95
2018-12-30T21:31:07.812Z,100950.41
2018-12-30T21:34:09.753Z,100959.16
2018-12-30T21:37:13.654Z,100956.33
2018-12-30T21:40:16.994Z,100966.34
2018-12-30T21:43:18.971Z,100965.84
2018-12-30T21:46:21.148Z,100964.24
2018-12-30T21:49:25.305Z,100963.88
2018-12-30T21:52:27.172Z,100956.55
2018-12-30T21:55:30.256Z,100960.56
2018-12-30T21:58:32.176Z,100955.48
2018-12-30T22:01:34.137Z,100961.02
2018-12-30T22:04:37.216Z,100972.30
2018-12-30T22:07:39.234Z,100971.25
2018-12-30T22:10:41.616Z,100976.47
2018-12-30T22:13:43.704Z,100984.28
2018-12-30T22:16:45.666Z,100981.30
2018-12-30T22:19:47.670Z,100989.98
2018-12-30T22:22:50.201Z,100994.23
2018-12-30T22:25:53.659Z,100992.58
2018-12-30T22:28:57.317Z,100994.65
2018-12-30T22:31:59.630Z,100987.99
2018-12-30T22:35:01.545Z,100999.81
2018-12-30T22:38:03.502Z,101000.56
2018-12-30T22:41:05.461Z,100994.73
2018-12-30T22:44:07.360Z,100996.38
2018-12-30T22:47:10.210Z,101000.09
2018-12-30T22:50:12.164Z,100998.66
2018-12-30T22:53:14.082Z,101007.13
2018-12-30T22:56:15.985Z,101003.28
2018-12-30T22:59:17.885Z,101004.48
2018-12-30T23:02:19.794Z,101006.55
2018-12-30T23:05:22.591Z,101014.36
2018-12-30T23:08:24.549Z,101021.77
2018-12-30T23:11:26.485Z,101021.34
2018-12-30T23:14:28.623Z,101020.30
2018-12-30T23:17:30.563Z,101025.02
2018-12-30T23:20:32.483Z,101020.76
2018-12-30T23:23:34.462Z,101017.44
2018-12-30T23:26:36.347Z,101016.66
2018-12-30T23:29:39.502Z,101026.38
2018-12-30T23:32:41.409Z,101018.64
2018-12-30T23:35:43.320Z,101024.40
2018-12-30T23:38:45.185Z,101010.91
2018-12-30T23:41:47.112Z,101025.31
2018-12-30T23:44:49.034Z,101022.20
2018-12-30T23:47:50.903Z,101023.19
2018-12-30T23:50:52.912Z,101030.70
2018-12-30T23:53:54.837Z,101032.98
2018-12-30T23:56:56.730Z,101035.95
2018-12-30T23:59:58.603Z,101046.41
